createdAt,value
2023-01-20T00:02:22.562Z,100431.41
2023-01-20T00:05:26.557Z,100433.41
2023-01-20T00:08:29.223Z,100446.22
2023-01-20T00:11:32.092Z,100440.13
2023-01-20T00:14:34.688Z,100453.06
2023-01-20T00:17:37.323Z,100451.16
2023-01-20T00:20:41.287Z,100461.69
2023-01-20T00:23:44.174Z,100460.97
2023-01-20T00:26:46.761Z,100469.53
2023-01-20T00:29:49.367Z,100471.63
2023-01-20T00:32:52.188Z,100483.47
2023-01-20T00:35:56.103Z,100480.59
2023-01-20T00:38:58.789Z,100480.66
2023-01-20T00:42:01.407Z,100485.81
2023-01-20T00:45:04.277Z,100491.84
2023-01-20T00:48:07.472Z,100492.56
2023-01-20T00:51:12.185Z,100495.19
2023-01-20T00:54:14.768Z,100496.81
2023-01-20T00:57:17.356Z,100497.94
2023-01-20T01:00:20.438Z,100503.22
2023-01-20T01:03:23.507Z,100511.41
2023-01-20T01:06:27.441Z,100514.50
2023-01-20T01:09:30.023Z,100518.84
2023-01-20T01:12:32.688Z,100517.97
2023-01-20T01:15:35.428Z,100533.47
2023-01-20T01:18:38.085Z,100529.16
2023-01-20T01:21:42.002Z,100534.59
2023-01-20T01:24:44.642Z,100532.25
2023-01-20T01:27:47.223Z,100547.84
2023-01-20T01:30:49.854Z,100551.44
2023-01-20T01:33:52.451Z,100549.81
2023-01-20T01:36:56.400Z,100554.66
2023-01-20T01:39:58.978Z,100556.38
2023-01-20T01:43:01.566Z,100549.59
2023-01-20T01:46:05.193Z,100557.31
2023-01-20T01:49:14.164Z,100559.00
2023-01-20T01:52:20.809Z,100556.25
2023-01-20T01:55:28.466Z,100558.09
2023-01-20T01:58:34.748Z,100570.16
2023-01-20T02:01:40.499Z,100570.38
2023-01-20T02:04:43.199Z,100571.47
2023-01-20T02:07:48.776Z,100574.88
2023-01-20T02:10:51.371Z,100582.66
2023-01-20T02:13:54.140Z,100596.50
2023-01-20T02:17:05.270Z,100592.91
2023-01-20T02:20:37.255Z,100592.94
2023-01-20T02:24:03.784Z,100596.72
2023-01-20T02:27:12.155Z,100602.47
2023-01-20T02:30:55.076Z,100608.72
2023-01-20T02:34:03.028Z,100612.34
2023-01-20T02:37:12.070Z,100618.31
2023-01-20T02:40:26.800Z,100611.31
2023-01-20T02:43:35.866Z,100620.19
2023-01-20T02:46:45.863Z,100629.78
2023-01-20T02:49:55.863Z,100629.75
2023-01-20T02:53:02.414Z,100625.13
2023-01-20T02:56:05.714Z,100626.69
2023-01-20T02:59:12.267Z,100633.19
2023-01-20T03:02:18.640Z,100642.19
2023-01-20T03:05:28.070Z,100650.94
2023-01-20T03:08:33.289Z,100635.88
2023-01-20T03:11:41.531Z,100641.34
2023-01-20T03:14:44.291Z,100644.63
2023-01-20T03:17:46.855Z,100648.38
2023-01-20T03:20:50.870Z,100649.97
2023-01-20T03:23:55.402Z,100645.47
2023-01-20T03:26:58.956Z,100653.41
2023-01-20T03:30:01.549Z,100649.81
2023-01-20T03:33:04.971Z,100655.03
2023-01-20T03:36:10.520Z,100663.91
2023-01-20T03:39:13.504Z,100670.19
2023-01-20T03:42:20.993Z,100677.94
2023-01-20T03:45:32.106Z,100678.66
2023-01-20T03:48:41.664Z,100683.25
2023-01-20T03:51:55.748Z,100684.97
2023-01-20T03:55:02.717Z,100683.97
2023-01-20T03:58:08.279Z,100691.00
2023-01-20T04:01:18.974Z,100696.25
2023-01-20T04:04:22.567Z,100696.25
2023-01-20T04:07:27.698Z,100702.41
2023-01-20T04:10:32.817Z,100694.59
2023-01-20T04:13:36.132Z,100702.63
2023-01-20T04:16:39.267Z,100702.53
2023-01-20T04:19:41.857Z,100705.16
2023-01-20T04:22:50.029Z,100717.31
2023-01-20T04:25:52.609Z,100714.69
2023-01-20T04:28:55.198Z,100717.19
2023-01-20T04:32:01.073Z,100719.06
2023-01-20T04:35:03.739Z,100719.91
2023-01-20T04:38:07.693Z,100724.09
2023-01-20T04:41:12.225Z,100731.25
2023-01-20T04:44:14.836Z,100734.69
2023-01-20T04:47:17.419Z,100729.47
2023-01-20T04:50:20.007Z,100735.50
2023-01-20T04:53:23.927Z,100753.06
2023-01-20T04:56:27.347Z,100759.91
2023-01-20T04:59:29.933Z,100755.59
2023-01-20T05:02:32.751Z,100765.84
2023-01-20T05:05:35.460Z,100769.41
2023-01-20T05:08:39.460Z,100768.63
2023-01-20T05:11:42.553Z,100769.44
2023-01-20T05:14:45.156Z,100777.16
2023-01-20T05:17:47.738Z,100779.81
2023-01-20T05:20:50.960Z,100785.13
2023-01-20T05:23:55.729Z,100793.81
2023-01-20T05:27:01.257Z,100801.69
2023-01-20T05:30:03.941Z,100803.47
2023-01-20T05:33:06.567Z,100803.50
2023-01-20T05:36:10.452Z,100808.66
2023-01-20T05:39:14.410Z,100815.69
2023-01-20T05:42:16.993Z,100826.81
2023-01-20T05:45:19.620Z,100823.44
2023-01-20T05:48:22.770Z,100820.72
2023-01-20T05:51:25.375Z,100827.59
2023-01-20T05:54:29.333Z,100825.03
2023-01-20T05:57:31.907Z,100823.53
2023-01-20T06:00:34.844Z,100828.81
2023-01-20T06:03:37.784Z,100834.75
2023-01-20T06:06:40.422Z,100838.41
2023-01-20T06:09:44.390Z,100842.72
2023-01-20T06:12:52.958Z,100847.06
2023-01-20T06:15:56.648Z,100853.97
2023-01-20T06:18:59.282Z,100856.63
2023-01-20T06:22:01.885Z,100867.94
2023-01-20T06:25:06.476Z,100867.97
2023-01-20T06:28:09.445Z,100871.47
2023-01-20T06:31:14.269Z,100877.59
2023-01-20T06:34:16.945Z,100884.53
2023-01-20T06:37:19.631Z,100901.91
2023-01-20T06:40:23.570Z,100900.16
2023-01-20T06:43:26.266Z,100908.84
2023-01-20T06:46:28.973Z,100915.88
2023-01-20T06:49:33.459Z,100920.06
2023-01-20T06:52:36.073Z,100927.06
2023-01-20T06:55:39.995Z,100933.16
2023-01-20T06:58:42.691Z,100940.06
2023-01-20T07:01:45.464Z,100942.63
2023-01-20T07:04:48.083Z,100963.53
2023-01-20T07:07:50.652Z,100956.53
2023-01-20T07:10:54.663Z,100963.50
2023-01-20T07:13:57.236Z,100974.09
2023-01-20T07:16:59.820Z,100974.06
2023-01-20T07:20:02.445Z,100980.25
2023-01-20T07:23:05.915Z,100982.94
2023-01-20T07:26:11.986Z,100983.84
2023-01-20T07:29:16.606Z,100985.59
2023-01-20T07:32:20.395Z,100994.28
2023-01-20T07:35:23.047Z,100997.78
2023-01-20T07:38:26.027Z,101009.97
2023-01-20T07:41:29.953Z,101010.81
2023-01-20T07:44:33.300Z,101018.69
2023-01-20T07:47:35.975Z,101028.28
2023-01-20T07:50:38.731Z,101023.06
2023-01-20T07:53:43.517Z,101037.00
2023-01-20T07:56:47.491Z,101041.28
2023-01-20T07:59:50.095Z,101042.19
2023-01-20T08:02:52.703Z,101051.84
2023-01-20T08:05:55.337Z,101047.47
2023-01-20T08:09:01.723Z,101050.97
2023-01-20T08:12:06.456Z,101060.56
2023-01-20T08:15:10.538Z,101067.53
2023-01-20T08:18:13.201Z,101062.28
2023-01-20T08:21:21.523Z,101077.13
2023-01-20T08:24:24.163Z,101086.72
2023-01-20T08:27:28.123Z,101086.69
2023-01-20T08:30:30.817Z,101085.78
2023-01-20T08:33:33.512Z,101096.28
2023-01-20T08:36:39.833Z,101093.63
2023-01-20T08:39:42.447Z,101109.34
2023-01-20T08:42:46.414Z,101102.34
2023-01-20T08:45:49.034Z,101105.00
2023-01-20T08:48:51.922Z,101109.38
2023-01-20T08:51:55.344Z,101114.59
2023-01-20T08:54:58.707Z,101115.44
2023-01-20T08:58:03.349Z,101119.78
2023-01-20T09:01:09.756Z,101126.78
2023-01-20T09:04:13.128Z,101133.75
2023-01-20T09:07:15.730Z,101140.78
2023-01-20T09:10:19.342Z,101146.84
2023-01-20T09:13:23.261Z,101142.50
2023-01-20T09:16:25.854Z,101144.25
2023-01-20T09:19:28.453Z,101153.81
2023-01-20T09:22:31.093Z,101153.75
2023-01-20T09:25:33.702Z,101160.78
2023-01-20T09:28:37.678Z,101157.25
2023-01-20T09:31:44.321Z,101160.78
2023-01-20T09:34:47.209Z,101160.81
2023-01-20T09:38:07.619Z,101167.78
2023-01-20T09:41:36.048Z,101168.63
2023-01-20T09:44:47.958Z,101166.94
2023-01-20T09:47:50.785Z,101173.03
2023-01-20T09:51:20.211Z,101174.78
2023-01-20T09:54:27.345Z,101190.47
2023-01-20T09:57:34.810Z,101189.59
2023-01-20T10:00:41.522Z,101195.72
2023-01-20T10:03:52.273Z,101187.88
2023-01-20T10:06:58.951Z,101195.75
2023-01-20T10:10:10.525Z,101192.22
2023-01-20T10:13:18.146Z,101207.91
2023-01-20T10:16:30.054Z,101216.59
2023-01-20T10:19:38.359Z,101212.28
2023-01-20T10:22:46.573Z,101217.53
2023-01-20T10:25:53.231Z,101220.97
2023-01-20T10:29:00.221Z,101225.38
2023-01-20T10:32:07.339Z,101227.16
2023-01-20T10:35:17.194Z,101235.88
2023-01-20T10:38:27.532Z,101226.28
2023-01-20T10:41:37.263Z,101224.53
2023-01-20T10:44:40.281Z,101224.53
2023-01-20T10:47:55.942Z,101235.84
2023-01-20T10:51:07.431Z,101234.97
2023-01-20T10:54:23.355Z,101233.22
2023-01-20T10:57:26.967Z,101244.59
2023-01-20T11:00:32.484Z,101242.81
2023-01-20T11:03:40.658Z,101241.97
2023-01-20T11:06:43.303Z,101237.50
2023-01-20T11:09:48.670Z,101238.38
2023-01-20T11:12:53.618Z,101235.59
2023-01-20T11:16:00.569Z,101237.19
2023-01-20T11:19:05.910Z,101242.31
2023-01-20T11:22:13.148Z,101242.59
2023-01-20T11:25:25.504Z,101252.34
2023-01-20T11:28:32.857Z,101237.22
2023-01-20T11:31:41.213Z,101247.47
2023-01-20T11:34:50.126Z,101251.25
2023-01-20T11:37:53.388Z,101251.66
2023-01-20T11:40:57.285Z,101250.53
2023-01-20T11:44:01.264Z,101251.22
2023-01-20T11:47:17.721Z,101264.25
2023-01-20T11:50:33.069Z,101269.06
2023-01-20T11:53:36.419Z,101275.66
2023-01-20T11:56:42.603Z,101280.00
2023-01-20T11:59:49.695Z,101288.03
2023-01-20T12:02:58.601Z,101294.91
2023-01-20T12:06:08.207Z,101290.38
2023-01-20T12:09:14.395Z,101293.56
2023-01-20T12:12:28.493Z,101298.56
2023-01-20T12:15:33.287Z,101303.72
2023-01-20T12:18:53.344Z,101302.72
2023-01-20T12:22:14.256Z,101299.44
2023-01-20T12:25:21.363Z,101301.84
2023-01-20T12:28:29.267Z,101301.22
2023-01-20T12:31:32.936Z,101305.91
2023-01-20T12:34:35.701Z,101314.31
2023-01-20T12:37:45.940Z,101323.13
2023-01-20T12:40:52.347Z,101323.59
2023-01-20T12:44:03.022Z,101328.06
2023-01-20T12:47:19.457Z,101323.47
2023-01-20T12:50:33.979Z,101330.09
2023-01-20T12:54:03.194Z,101333.94
2023-01-20T12:57:16.739Z,101338.03
2023-01-20T13:00:34.479Z,101339.44
2023-01-20T13:04:26.889Z,101339.81
2023-01-20T13:07:41.378Z,101346.16
2023-01-20T13:11:04.373Z,101341.38
2023-01-20T13:14:13.471Z,101337.97
2023-01-20T13:17:25.782Z,101361.00
2023-01-20T13:20:31.004Z,101358.75
2023-01-20T13:23:36.679Z,101364.56
2023-01-20T13:26:40.740Z,101370.59
2023-01-20T13:29:53.747Z,101369.22
2023-01-20T13:33:05.925Z,101381.56
2023-01-20T13:36:17.260Z,101386.06
2023-01-20T13:39:42.097Z,101385.19
2023-01-20T13:42:53.315Z,101385.88
2023-01-20T13:46:52.595Z,101377.38
2023-01-20T13:49:55.355Z,101396.38
2023-01-20T13:53:14.879Z,101393.19
2023-01-20T13:56:26.071Z,101395.81
2023-01-20T13:59:30.036Z,101396.84
2023-01-20T14:02:37.308Z,101404.09
2023-01-20T14:05:40.660Z,101411.06
2023-01-20T14:08:45.592Z,101408.97
2023-01-20T14:11:50.438Z,101420.72
2023-01-20T14:14:54.601Z,101423.91
2023-01-20T14:17:59.602Z,101429.91
2023-01-20T14:21:05.492Z,101433.91
2023-01-20T14:24:29.160Z,101437.22
2023-01-20T14:27:37.348Z,101451.69
2023-01-20T14:30:41.386Z,101446.03
2023-01-20T14:33:45.880Z,101456.00
2023-01-20T14:36:48.769Z,101461.69
2023-01-20T14:39:52.102Z,101465.50
2023-01-20T14:42:59.370Z,101473.22
2023-01-20T14:46:03.570Z,101471.72
2023-01-20T14:49:06.400Z,101480.66
2023-01-20T14:52:12.423Z,101489.88
2023-01-20T14:55:32.327Z,101496.91
2023-01-20T14:58:36.319Z,101503.97
2023-01-20T15:01:40.899Z,101513.69
2023-01-20T15:04:44.643Z,101520.03
2023-01-20T15:07:47.411Z,101514.03
2023-01-20T15:11:12.453Z,101522.88
2023-01-20T15:14:15.019Z,101536.09
2023-01-20T15:17:20.271Z,101537.88
2023-01-20T15:20:31.611Z,101541.53
2023-01-20T15:23:38.073Z,101550.72
2023-01-20T15:26:40.743Z,101552.19
2023-01-20T15:29:43.568Z,101554.81
2023-01-20T15:32:48.185Z,101564.53
2023-01-20T15:35:59.115Z,101569.84
2023-01-20T15:39:01.682Z,101576.94
2023-01-20T15:42:04.946Z,101584.97
2023-01-20T15:45:08.487Z,101581.38
2023-01-20T15:48:18.153Z,101594.56
2023-01-20T15:51:21.372Z,101590.19
2023-01-20T15:54:23.956Z,101606.00
2023-01-20T15:57:26.658Z,101608.66
2023-01-20T16:00:30.697Z,101613.97
2023-01-20T16:03:35.453Z,101624.47
2023-01-20T16:06:38.844Z,101631.53
2023-01-20T16:09:41.498Z,101637.66
2023-01-20T16:12:44.438Z,101642.03
2023-01-20T16:15:47.122Z,101644.63
2023-01-20T16:18:51.347Z,101649.91
2023-01-20T16:21:53.933Z,101665.69
2023-01-20T16:24:56.540Z,101666.63
2023-01-20T16:28:00.024Z,101671.84
2023-01-20T16:31:02.642Z,101676.22
2023-01-20T16:34:07.827Z,101679.72
2023-01-20T16:37:14.023Z,101683.22
2023-01-20T16:40:19.750Z,101688.44
2023-01-20T16:43:24.094Z,101698.09
2023-01-20T16:46:29.197Z,101698.09
2023-01-20T16:49:33.129Z,101705.13
2023-01-20T16:52:35.888Z,101708.63
2023-01-20T16:55:38.972Z,101712.13
2023-01-20T16:58:41.697Z,101720.03
2023-01-20T17:01:44.590Z,101726.22
2023-01-20T17:04:48.543Z,101735.84
2023-01-20T17:07:51.265Z,101739.31
2023-01-20T17:10:53.853Z,101737.59
2023-01-20T17:13:56.960Z,101745.50
2023-01-20T17:16:59.990Z,101745.47
2023-01-20T17:20:04.136Z,101748.13
2023-01-20T17:23:06.888Z,101750.75
2023-01-20T17:26:10.554Z,101759.53
2023-01-20T17:29:13.182Z,101770.06
2023-01-20T17:32:16.010Z,101772.69
2023-01-20T17:35:20.085Z,101781.44
2023-01-20T17:38:23.405Z,101788.47
2023-01-20T17:41:26.172Z,101804.22
2023-01-20T17:44:28.771Z,101796.34
2023-01-20T17:47:31.674Z,101792.84
2023-01-20T17:50:35.637Z,101810.34
2023-01-20T17:53:38.322Z,101817.38
2023-01-20T17:56:40.967Z,101817.38
2023-01-20T17:59:43.571Z,101825.25
2023-01-20T18:02:46.182Z,101835.75
2023-01-20T18:05:53.327Z,101832.25
2023-01-20T18:08:57.325Z,101838.38
2023-01-20T18:12:00.035Z,101843.66
2023-01-20T18:15:02.782Z,101848.91
2023-01-20T18:18:05.481Z,101848.03
2023-01-20T18:21:10.622Z,101849.78
2023-01-20T18:24:13.649Z,101858.53
2023-01-20T18:27:18.672Z,101857.66
2023-01-20T18:30:21.429Z,101868.16
2023-01-20T18:33:25.146Z,101869.94
2023-01-20T18:36:31.100Z,101882.19
2023-01-20T18:39:34.560Z,101881.34
2023-01-20T18:42:37.274Z,101895.31
2023-01-20T18:45:39.941Z,101889.19
2023-01-20T18:48:45.767Z,101890.09
2023-01-20T18:51:49.767Z,101892.72
2023-01-20T18:54:52.341Z,101902.34
2023-01-20T18:57:54.917Z,101908.50
2023-01-20T19:01:03.387Z,101917.25
2023-01-20T19:04:08.048Z,101914.59
2023-01-20T19:07:11.973Z,101918.97
2023-01-20T19:10:14.913Z,101921.59
2023-01-20T19:13:17.591Z,101925.97
2023-01-20T19:16:22.079Z,101929.47
2023-01-20T19:19:24.794Z,101933.88
2023-01-20T19:22:28.847Z,101939.97
2023-01-20T19:25:31.716Z,101931.19
2023-01-20T19:28:35.019Z,101943.47
2023-01-20T19:31:40.264Z,101948.72
2023-01-20T19:34:44.961Z,101960.06
2023-01-20T19:37:49.020Z,101958.34
2023-01-20T19:40:51.617Z,101968.84
2023-01-20T19:43:56.970Z,101980.22
2023-01-20T19:47:04.057Z,101977.56
2023-01-20T19:50:07.488Z,101978.44
2023-01-20T19:53:11.421Z,101983.69
2023-01-20T19:56:16.252Z,101988.97
2023-01-20T19:59:18.986Z,101989.81
2023-01-20T20:02:21.754Z,102001.25
2023-01-20T20:05:24.470Z,102010.84
2023-01-20T20:08:28.547Z,102003.78
2023-01-20T20:11:32.252Z,102009.06
2023-01-20T20:14:35.153Z,102013.47
2023-01-20T20:17:37.762Z,102013.44
2023-01-20T20:20:40.335Z,102020.38
2023-01-20T20:23:44.263Z,102018.66
2023-01-20T20:26:48.041Z,102026.53
2023-01-20T20:29:50.675Z,102029.22
2023-01-20T20:32:53.378Z,102037.06
2023-01-20T20:35:55.950Z,102034.47
2023-01-20T20:39:01.000Z,102031.84
2023-01-20T20:42:03.767Z,102038.00
2023-01-20T20:45:07.374Z,102041.47
2023-01-20T20:48:10.679Z,102048.47
2023-01-20T20:51:15.761Z,102053.75
2023-01-20T20:54:19.901Z,102054.63
2023-01-20T20:57:22.524Z,102057.22
2023-01-20T21:00:28.103Z,102060.72
2023-01-20T21:03:30.866Z,102077.34
2023-01-20T21:06:34.159Z,102076.47
2023-01-20T21:09:38.113Z,102083.53
2023-01-20T21:12:40.900Z,102082.66
2023-01-20T21:15:43.601Z,102081.69
2023-01-20T21:18:46.215Z,102088.72
2023-01-20T21:21:48.802Z,102085.19
2023-01-20T21:24:52.710Z,102090.38
2023-01-20T21:27:55.345Z,102088.75
2023-01-20T21:30:57.974Z,102094.00
2023-01-20T21:34:01.627Z,102094.00
2023-01-20T21:37:04.297Z,102096.59
2023-01-20T21:40:09.454Z,102102.72
2023-01-20T21:43:29.451Z,102101.78
2023-01-20T21:46:35.877Z,102104.41
2023-01-20T21:49:57.456Z,102113.22
2023-01-20T21:53:00.033Z,102120.22
2023-01-20T21:56:04.154Z,102117.63
2023-01-20T21:59:07.526Z,102123.72
2023-01-20T22:02:12.289Z,102125.50
2023-01-20T22:05:15.089Z,102134.28
2023-01-20T22:08:17.696Z,102143.84
2023-01-20T22:11:21.764Z,102141.22
2023-01-20T22:14:24.372Z,102142.97
2023-01-20T22:17:27.100Z,102145.66
2023-01-20T22:20:30.150Z,102148.31
2023-01-20T22:23:33.264Z,102152.69
2023-01-20T22:26:37.345Z,102155.38
2023-01-20T22:29:40.024Z,102150.09
2023-01-20T22:32:42.601Z,102150.94
2023-01-20T22:35:45.208Z,102155.28
2023-01-20T22:38:49.952Z,102150.94
2023-01-20T22:41:54.044Z,102161.47
2023-01-20T22:44:56.749Z,102159.69
2023-01-20T22:47:59.324Z,102160.59
2023-01-20T22:51:05.991Z,102166.75
2023-01-20T22:54:10.616Z,102164.13
2023-01-20T22:57:14.561Z,102174.72
2023-01-20T23:00:18.951Z,102181.72
2023-01-20T23:03:21.835Z,102183.44
2023-01-20T23:06:25.951Z,102197.50
2023-01-20T23:09:28.738Z,102193.09
2023-01-20T23:12:32.755Z,102200.16
2023-01-20T23:15:35.375Z,102200.16
2023-01-20T23:18:38.075Z,102207.13
2023-01-20T23:21:40.801Z,102220.22
2023-01-20T23:24:43.397Z,102214.97
2023-01-20T23:27:47.343Z,102219.38
2023-01-20T23:30:49.938Z,102208.81
2023-01-20T23:33:54.796Z,102214.91
2023-01-20T23:36:57.710Z,102218.47
2023-01-20T23:40:00.294Z,102223.81
2023-01-20T23:43:04.262Z,102219.44
2023-01-20T23:46:07.921Z,102221.97
2023-01-20T23:49:10.529Z,102225.50
2023-01-20T23:52:13.518Z,102228.09
2023-01-20T23:55:16.196Z,102229.75
2023-01-20T23:58:20.117Z,102230.59
